Time;durP1;ratioP1;P1;durP2;ratioP2;P2;SDS_P1;SDS_P2;PMS_P1;PMS_P2;Temp;Humidity;BMP_temperature;BMP_pressure;BME280_temperature;BME280_humidity;BME280_pressure;Samples;Min_cycle;Max_cycle;Signal;HPM_P1;HPM_P2
2023/05/17 00:01:22;;;;;;;;;;;;;;;8.05;81.35;102443.84;5081592;28;19935;-61
2023/05/17 00:03:47;;;;;;;;;;;;;;;8.00;81.80;102446.84;5068682;28;19920;-61
2023/05/17 00:06:12;;;;;;;;;;;;;;;7.96;82.13;102450.66;5080723;28;19981;-61
2023/05/17 00:08:37;;;;;;;;;;;;;;;7.92;82.14;102451.03;5073836;28;19920;-61
2023/05/17 00:11:03;;;;;;;;;;;;;;;7.90;82.62;102445.00;5069653;28;19923;-62
2023/05/17 00:13:28;;;;;;;;;;;;;;;7.91;82.88;102447.53;5074274;28;20317;-62
2023/05/17 00:15:53;;;;;;;;;;;;;;;7.94;83.08;102447.28;5075337;28;19928;-62
2023/05/17 00:18:18;;;;;;;;;;;;;;;7.99;83.35;102439.84;5070111;28;19916;-62
2023/05/17 00:20:43;;;;;;;;;;;;;;;7.99;83.12;102446.94;5069395;28;19959;-62
2023/05/17 00:23:08;;;;;;;;;;;;;;;7.96;83.08;102452.47;5072494;28;20370;-62
2023/05/17 00:25:34;;;;;;;;;;;;;;;7.93;83.04;102450.91;5073330;28;20006;-62
2023/05/17 00:27:59;;;;;;;;;;;;;;;7.90;83.64;102453.78;5075526;28;20370;-61
2023/05/17 00:30:24;;;;;;;;;;;;;;;7.88;84.03;102445.13;5074568;28;19920;-62
2023/05/17 00:32:49;;;;;;;;;;;;;;;7.88;83.68;102446.91;5072239;28;19947;-61
2023/05/17 00:35:14;;;;;;;;;;;;;;;7.88;84.17;102453.06;5068719;28;19919;-61
2023/05/17 00:37:40;;;;;;;;;;;;;;;7.85;83.94;102444.50;5072948;28;19920;-62
2023/05/17 00:40:05;;;;;;;;;;;;;;;7.85;83.92;102457.72;5068439;28;20014;-62
2023/05/17 00:42:30;;;;;;;;;;;;;;;7.87;84.13;102450.53;5068248;28;20414;-62
2023/05/17 00:44:56;;;;;;;;;;;;;;;7.86;84.82;102447.03;5078052;28;19961;-62
2023/05/17 00:47:21;;;;;;;;;;;;;;;7.83;84.99;102443.78;5077184;28;19917;-62
2023/05/17 00:49:46;;;;;;;;;;;;;;;7.81;85.44;102443.03;5072588;28;20050;-62
2023/05/17 00:52:11;;;;;;;;;;;;;;;7.76;85.99;102438.06;5068214;28;20021;-62
2023/05/17 00:54:37;;;;;;;;;;;;;;;7.74;86.17;102446.13;5078610;28;19965;-62
2023/05/17 00:57:03;;;;;;;;;;;;;;;7.68;86.23;102441.28;5069013;28;19935;-61
2023/05/17 00:59:28;;;;;;;;;;;;;;;7.59;85.58;102447.25;5068937;28;19990;-62
2023/05/17 01:01:54;;;;;;;;;;;;;;;7.47;85.56;102443.69;5077788;28;19978;-60
2023/05/17 01:04:19;;;;;;;;;;;;;;;7.36;85.59;102442.78;5070765;28;19931;-61
2023/05/17 01:06:45;;;;;;;;;;;;;;;7.26;86.21;102439.97;5071607;28;19924;-61
2023/05/17 01:09:10;;;;;;;;;;;;;;;7.19;86.43;102440.50;5068312;28;19931;-62
2023/05/17 01:11:54;;;;;;;;;;;;;;;7.13;86.73;102439.13;5072722;28;19923;-62
2023/05/17 01:14:37;;;;;;;;;;;;;;;7.14;87.10;102446.94;5067699;28;19912;-62
2023/05/17 01:17:11;;;;;;;;;;;;;;;7.15;86.60;102451.28;5070527;28;19934;-63
2023/05/17 01:19:48;;;;;;;;;;;;;;;7.19;86.25;102457.19;5074028;28;19912;-61
2023/05/17 01:22:32;;;;;;;;;;;;;;;7.22;86.48;102454.31;5071342;28;19961;-61
2023/05/17 01:25:03;;;;;;;;;;;;;;;7.20;86.65;102455.38;5068219;28;19961;-62
2023/05/17 01:27:29;;;;;;;;;;;;;;;7.15;86.72;102445.16;5072002;28;19913;-62
2023/05/17 01:29:55;;;;;;;;;;;;;;;7.12;86.87;102443.56;5080083;28;19916;-61
2023/05/17 01:32:21;;;;;;;;;;;;;;;7.11;87.01;102443.69;5077577;28;20289;-62
2023/05/17 01:34:46;;;;;;;;;;;;;;;7.12;87.26;102448.00;5070770;28;20374;-63
2023/05/17 01:37:11;;;;;;;;;;;;;;;7.12;87.49;102448.84;5078173;28;19921;-61
2023/05/17 01:39:36;;;;;;;;;;;;;;;7.10;87.60;102445.47;5076382;28;19971;-61
2023/05/17 01:42:21;;;;;;;;;;;;;;;7.05;87.42;102442.31;5085870;28;20447;-62
2023/05/17 01:44:46;;;;;;;;;;;;;;;6.97;87.54;102441.19;5072733;28;19916;-60
2023/05/17 01:47:15;;;;;;;;;;;;;;;6.92;87.52;102440.63;5075919;28;19917;-62
2023/05/17 01:49:45;;;;;;;;;;;;;;;6.90;87.98;102442.53;5084164;28;19912;-61
2023/05/17 01:52:30;;;;;;;;;;;;;;;6.88;87.82;102444.44;5075835;28;19912;-62
2023/05/17 01:55:11;;;;;;;;;;;;;;;6.85;87.76;102440.22;5079774;28;19977;-63
2023/05/17 01:57:38;;;;;;;;;;;;;;;6.86;87.60;102441.91;5077467;28;19955;-61
2023/05/17 02:00:05;;;;;;;;;;;;;;;6.86;87.77;102436.63;5081529;28;19948;-61
2023/05/17 02:02:30;;;;;;;;;;;;;;;6.87;87.70;102445.41;5076649;28;19916;-62
2023/05/17 02:04:55;;;;;;;;;;;;;;;6.86;88.09;102435.78;5084135;28;19920;-61
2023/05/17 02:07:21;;;;;;;;;;;;;;;6.85;88.59;102442.88;5075200;28;19963;-62
2023/05/17 02:09:46;;;;;;;;;;;;;;;6.79;88.85;102438.03;5082051;28;20023;-62
2023/05/17 02:12:11;;;;;;;;;;;;;;;6.71;88.29;102445.63;5073336;28;20694;-61
2023/05/17 02:14:36;;;;;;;;;;;;;;;6.66;88.56;102434.56;5086040;28;19973;-63
2023/05/17 02:17:04;;;;;;;;;;;;;;;6.66;88.70;102438.03;5073057;28;19924;-62
2023/05/17 02:19:29;;;;;;;;;;;;;;;6.68;89.22;102435.28;5074821;28;19919;-63
2023/05/17 02:21:55;;;;;;;;;;;;;;;6.68;89.81;102433.50;5069958;28;19912;-62
2023/05/17 02:24:20;;;;;;;;;;;;;;;6.69;90.42;102436.97;5073655;28;19925;-63
2023/05/17 02:26:46;;;;;;;;;;;;;;;6.69;90.30;102443.09;5071039;28;19981;-63
2023/05/17 02:29:11;;;;;;;;;;;;;;;6.65;90.03;102444.28;5078534;28;19982;-62
2023/05/17 02:31:36;;;;;;;;;;;;;;;6.64;89.84;102442.56;5077161;28;19958;-62
2023/05/17 02:34:01;;;;;;;;;;;;;;;6.66;89.75;102443.31;5086018;28;20324;-62
2023/05/17 02:36:26;;;;;;;;;;;;;;;6.68;89.78;102451.13;5077721;28;19920;-61
2023/05/17 02:38:51;;;;;;;;;;;;;;;6.72;89.93;102455.25;5078673;28;19921;-61
2023/05/17 02:41:17;;;;;;;;;;;;;;;6.77;90.03;102451.34;5078303;28;19924;-62
2023/05/17 02:43:42;;;;;;;;;;;;;;;6.84;90.27;102442.03;5082028;28;19946;-62
2023/05/17 02:46:07;;;;;;;;;;;;;;;6.93;90.71;102444.97;5078142;28;19956;-62
2023/05/17 02:48:32;;;;;;;;;;;;;;;7.00;90.81;102454.16;5074958;28;19921;-62
2023/05/17 02:50:58;;;;;;;;;;;;;;;7.06;90.81;102449.28;5086225;28;19916;-62
2023/05/17 02:53:23;;;;;;;;;;;;;;;7.14;91.21;102452.22;5083274;28;19995;-62
2023/05/17 02:55:48;;;;;;;;;;;;;;;7.22;91.03;102454.31;5076575;28;19920;-62
2023/05/17 02:58:13;;;;;;;;;;;;;;;7.28;90.97;102455.72;5073473;28;20002;-62
2023/05/17 03:00:38;;;;;;;;;;;;;;;7.31;91.55;102456.31;5075217;28;19924;-61
2023/05/17 03:03:03;;;;;;;;;;;;;;;7.34;91.07;102456.09;5073306;28;19916;-62
2023/05/17 03:05:29;;;;;;;;;;;;;;;7.37;91.61;102453.25;5073840;28;19991;-61
2023/05/17 03:07:54;;;;;;;;;;;;;;;7.38;91.83;102464.66;5082082;28;20366;-61
2023/05/17 03:10:19;;;;;;;;;;;;;;;7.40;91.72;102466.22;5077880;28;19955;-62
2023/05/17 03:12:44;;;;;;;;;;;;;;;7.42;92.07;102463.47;5076916;28;19935;-61
2023/05/17 03:15:10;;;;;;;;;;;;;;;7.45;91.44;102471.19;5079389;28;19924;-61
2023/05/17 03:17:35;;;;;;;;;;;;;;;7.47;91.74;102469.28;5077885;28;20007;-61
2023/05/17 03:20:00;;;;;;;;;;;;;;;7.47;92.66;102470.13;5078631;28;20365;-61
2023/05/17 03:22:25;;;;;;;;;;;;;;;7.50;92.97;102476.13;5073534;28;21743;-62
2023/05/17 03:24:51;;;;;;;;;;;;;;;7.49;92.70;102477.94;5075077;28;19924;-62
2023/05/17 03:27:16;;;;;;;;;;;;;;;7.48;92.77;102473.59;5075773;28;19916;-61
2023/05/17 03:29:41;;;;;;;;;;;;;;;7.49;92.83;102482.38;5070550;28;20344;-62
2023/05/17 03:32:07;;;;;;;;;;;;;;;7.44;92.32;102480.06;5071175;28;19916;-61
2023/05/17 03:34:32;;;;;;;;;;;;;;;7.42;92.38;102488.09;5072069;28;20554;-61
2023/05/17 03:36:57;;;;;;;;;;;;;;;7.40;92.80;102490.03;5086632;28;20437;-61
2023/05/17 03:39:22;;;;;;;;;;;;;;;7.37;92.49;102492.03;5082035;28;19965;-61
2023/05/17 03:41:47;;;;;;;;;;;;;;;7.33;92.70;102491.41;5075968;28;20604;-61
2023/05/17 03:44:13;;;;;;;;;;;;;;;7.30;93.15;102496.91;5077070;28;19950;-61
2023/05/17 03:46:38;;;;;;;;;;;;;;;7.26;93.69;102494.59;5081214;28;19916;-61
2023/05/17 03:49:03;;;;;;;;;;;;;;;7.20;94.24;102497.66;5076672;28;20568;-61
2023/05/17 03:51:28;;;;;;;;;;;;;;;7.17;94.00;102505.81;5070638;28;20006;-60
2023/05/17 03:53:57;;;;;;;;;;;;;;;7.11;93.83;102507.09;5078873;28;19947;-62
2023/05/17 03:56:22;;;;;;;;;;;;;;;7.08;94.30;102502.88;5078799;28;19929;-61
2023/05/17 03:58:48;;;;;;;;;;;;;;;7.05;94.07;102500.44;5076737;28;19969;-62
2023/05/17 04:01:13;;;;;;;;;;;;;;;7.04;94.62;102509.31;5075153;28;19968;-61
2023/05/17 04:03:38;;;;;;;;;;;;;;;7.06;94.66;102506.56;5075948;28;19985;-62
2023/05/17 04:06:07;;;;;;;;;;;;;;;7.07;94.80;102510.91;5079874;28;19987;-61
2023/05/17 04:08:32;;;;;;;;;;;;;;;7.07;94.73;102509.09;5081904;28;20368;-62
2023/05/17 04:10:57;;;;;;;;;;;;;;;7.09;94.70;102511.63;5068855;28;20023;-61
2023/05/17 04:13:23;;;;;;;;;;;;;;;7.10;94.99;102513.31;5080077;28;20370;-61
2023/05/17 04:15:48;;;;;;;;;;;;;;;7.12;95.18;102511.41;5071646;28;19920;-61
2023/05/17 04:18:13;;;;;;;;;;;;;;;7.17;95.14;102516.38;5071965;28;19913;-62
2023/05/17 04:20:38;;;;;;;;;;;;;;;7.20;94.90;102509.06;5074793;28;19995;-63
2023/05/17 04:23:03;;;;;;;;;;;;;;;7.26;94.66;102513.09;5071193;28;19923;-61
2023/05/17 04:25:29;;;;;;;;;;;;;;;7.33;94.50;102509.06;5074092;28;20336;-62
2023/05/17 04:27:54;;;;;;;;;;;;;;;7.38;94.39;102522.81;5068057;28;20282;-62
2023/05/17 04:30:20;;;;;;;;;;;;;;;7.44;94.03;102530.28;5077409;28;20021;-62
2023/05/17 04:32:46;;;;;;;;;;;;;;;7.52;94.02;102529.75;5067345;28;19912;-62
2023/05/17 04:35:11;;;;;;;;;;;;;;;7.58;93.64;102531.97;5072829;28;20407;-62
2023/05/17 04:37:38;;;;;;;;;;;;;;;7.62;93.88;102534.28;5067792;28;20389;-62
2023/05/17 04:40:04;;;;;;;;;;;;;;;7.66;93.59;102543.69;5069143;28;19970;-63
2023/05/17 04:42:29;;;;;;;;;;;;;;;7.71;93.82;102543.34;5071102;28;20175;-62
2023/05/17 04:44:56;;;;;;;;;;;;;;;7.74;93.37;102543.97;5070711;28;19916;-62
2023/05/17 04:47:21;;;;;;;;;;;;;;;7.82;93.31;102547.88;5068082;28;19923;-62
2023/05/17 04:49:47;;;;;;;;;;;;;;;7.85;93.28;102555.59;5078324;28;19912;-62
2023/05/17 04:52:12;;;;;;;;;;;;;;;7.91;93.01;102563.06;5076178;28;19920;-62
2023/05/17 04:54:37;;;;;;;;;;;;;;;7.96;92.96;102560.94;5082571;28;19924;-62
2023/05/17 04:57:03;;;;;;;;;;;;;;;8.04;93.11;102563.84;5076226;28;19916;-62
2023/05/17 04:59:28;;;;;;;;;;;;;;;8.08;93.07;102566.16;5072644;28;19928;-62
2023/05/17 05:01:53;;;;;;;;;;;;;;;8.12;92.81;102569.47;5070402;28;19916;-62
2023/05/17 05:04:18;;;;;;;;;;;;;;;8.17;92.93;102558.53;5071233;28;20053;-62
2023/05/17 05:06:43;;;;;;;;;;;;;;;8.22;92.93;102561.69;5077370;28;20499;-62
2023/05/17 05:09:09;;;;;;;;;;;;;;;8.27;93.20;102573.63;5070487;28;19954;-62
2023/05/17 05:11:34;;;;;;;;;;;;;;;8.37;93.26;102573.78;5070813;28;20373;-62
2023/05/17 05:14:00;;;;;;;;;;;;;;;8.47;93.26;102581.94;5069990;28;19927;-62
2023/05/17 05:16:25;;;;;;;;;;;;;;;8.55;93.54;102579.53;5085668;28;19927;-62
2023/05/17 05:18:50;;;;;;;;;;;;;;;8.63;93.47;102585.09;5080500;28;20010;-61
2023/05/17 05:21:15;;;;;;;;;;;;;;;8.72;93.78;102587.06;5077267;28;20539;-62
2023/05/17 05:23:40;;;;;;;;;;;;;;;8.80;94.14;102589.13;5078763;28;19912;-62
2023/05/17 05:26:06;;;;;;;;;;;;;;;8.86;94.10;102594.81;5084395;28;19923;-62
2023/05/17 05:28:31;;;;;;;;;;;;;;;8.91;94.00;102595.31;5079230;28;19999;-62
2023/05/17 05:30:58;;;;;;;;;;;;;;;8.99;94.09;102598.22;5076031;28;19928;-62
2023/05/17 05:33:23;;;;;;;;;;;;;;;9.09;94.22;102594.88;5072530;28;19927;-62
2023/05/17 05:35:48;;;;;;;;;;;;;;;9.17;93.92;102603.91;5078598;28;20320;-62
2023/05/17 05:38:13;;;;;;;;;;;;;;;9.26;94.29;102597.91;5081952;28;19991;-62
2023/05/17 05:40:38;;;;;;;;;;;;;;;9.36;93.92;102603.34;5087354;28;20412;-62
2023/05/17 05:43:04;;;;;;;;;;;;;;;9.45;94.13;102605.25;5078212;28;19944;-62
2023/05/17 05:45:29;;;;;;;;;;;;;;;9.52;94.39;102611.78;5077006;28;20308;-62
2023/05/17 05:47:54;;;;;;;;;;;;;;;9.60;94.15;102612.03;5071259;28;19917;-62
2023/05/17 05:50:19;;;;;;;;;;;;;;;9.67;94.00;102611.53;5086834;28;19938;-61
2023/05/17 05:52:45;;;;;;;;;;;;;;;9.77;94.02;102615.16;5072599;28;19916;-61
2023/05/17 05:55:10;;;;;;;;;;;;;;;9.82;93.69;102615.63;5079234;28;19919;-62
2023/05/17 05:57:35;;;;;;;;;;;;;;;9.86;93.27;102623.25;5069561;28;20305;-62
2023/05/17 06:00:00;;;;;;;;;;;;;;;9.90;93.17;102619.38;5076645;28;19944;-62
2023/05/17 06:02:25;;;;;;;;;;;;;;;9.95;92.71;102626.97;5083121;28;19912;-62
2023/05/17 06:04:51;;;;;;;;;;;;;;;10.01;92.58;102622.97;5077075;28;19913;-62
2023/05/17 06:07:16;;;;;;;;;;;;;;;10.03;92.25;102629.84;5072760;28;19913;-61
2023/05/17 06:09:41;;;;;;;;;;;;;;;10.06;92.02;102634.91;5075727;28;19957;-61
2023/05/17 06:12:06;;;;;;;;;;;;;;;10.09;91.82;102632.00;5076839;28;20539;-63
2023/05/17 06:14:32;;;;;;;;;;;;;;;10.15;91.56;102639.47;5084951;28;19916;-62
2023/05/17 06:16:57;;;;;;;;;;;;;;;10.18;90.90;102639.22;5076857;28;19950;-62
2023/05/17 06:19:22;;;;;;;;;;;;;;;10.21;90.38;102646.97;5082123;28;20361;-63
2023/05/17 06:21:47;;;;;;;;;;;;;;;10.22;89.90;102651.31;5081689;28;19955;-63
2023/05/17 06:24:12;;;;;;;;;;;;;;;10.27;89.51;102650.09;5080915;28;19958;-63
2023/05/17 06:26:39;;;;;;;;;;;;;;;10.33;89.10;102655.75;5078637;28;19923;-62
2023/05/17 06:29:04;;;;;;;;;;;;;;;10.40;88.90;102662.25;5075655;28;20003;-62
2023/05/17 06:31:29;;;;;;;;;;;;;;;10.44;88.36;102655.75;5068016;28;20045;-62
2023/05/17 06:33:55;;;;;;;;;;;;;;;10.51;87.88;102667.56;5071722;28;20003;-62
2023/05/17 06:36:20;;;;;;;;;;;;;;;10.60;87.64;102668.59;5075221;28;20309;-62
2023/05/17 06:38:45;;;;;;;;;;;;;;;10.65;86.92;102662.91;5082027;28;19919;-63
2023/05/17 06:41:10;;;;;;;;;;;;;;;10.67;86.85;102655.66;5088267;28;20410;-62
2023/05/17 06:43:35;;;;;;;;;;;;;;;10.71;86.17;102662.41;5083468;28;19919;-62
2023/05/17 06:46:01;;;;;;;;;;;;;;;10.78;86.05;102663.59;5087557;28;19912;-61
2023/05/17 06:48:26;;;;;;;;;;;;;;;10.82;85.05;102665.88;5086978;28;20011;-61
2023/05/17 06:50:51;;;;;;;;;;;;;;;10.85;84.57;102675.41;5088873;28;19961;-62
2023/05/17 06:53:16;;;;;;;;;;;;;;;10.91;84.24;102669.56;5092835;28;20493;-61
2023/05/17 06:55:42;;;;;;;;;;;;;;;10.98;83.42;102669.88;5086043;28;19913;-62
2023/05/17 06:58:07;;;;;;;;;;;;;;;11.06;82.96;102678.09;5085856;28;19912;-61
2023/05/17 07:00:32;;;;;;;;;;;;;;;11.12;82.82;102682.88;5084736;28;19965;-61
2023/05/17 07:02:57;;;;;;;;;;;;;;;11.17;82.40;102673.53;5088329;28;19919;-60
2023/05/17 07:05:23;;;;;;;;;;;;;;;11.14;81.45;102676.47;5083148;28;20369;-61
2023/05/17 07:07:48;;;;;;;;;;;;;;;11.15;80.96;102677.31;5078913;28;19919;-61
2023/05/17 07:10:13;;;;;;;;;;;;;;;11.20;80.04;102675.09;5072001;28;19916;-61
2023/05/17 07:12:38;;;;;;;;;;;;;;;11.25;79.36;102685.34;5085553;28;19919;-61
2023/05/17 07:15:04;;;;;;;;;;;;;;;11.25;78.03;102683.53;5084867;28;19916;-61
2023/05/17 07:17:29;;;;;;;;;;;;;;;11.28;77.94;102685.94;5087320;28;20281;-61
2023/05/17 07:19:54;;;;;;;;;;;;;;;11.35;77.85;102692.44;5082198;28;20383;-62
2023/05/17 07:22:19;;;;;;;;;;;;;;;11.39;77.73;102690.34;5086900;28;19932;-62
2023/05/17 07:24:45;;;;;;;;;;;;;;;11.39;77.07;102690.34;5088017;28;20343;-61
2023/05/17 07:27:10;;;;;;;;;;;;;;;11.42;76.59;102687.41;5085138;28;20285;-62
2023/05/17 07:29:36;;;;;;;;;;;;;;;11.44;74.57;102688.13;5074173;28;19917;-62
2023/05/17 07:32:01;;;;;;;;;;;;;;;11.50;74.31;102700.91;5074876;28;19958;-61
2023/05/17 07:34:26;;;;;;;;;;;;;;;11.53;72.84;102697.97;5072094;28;19916;-62
2023/05/17 07:36:51;;;;;;;;;;;;;;;11.48;72.56;102703.69;5086723;28;19917;-61
2023/05/17 07:39:16;;;;;;;;;;;;;;;11.48;72.45;102703.69;5078242;28;20037;-62
2023/05/17 07:41:42;;;;;;;;;;;;;;;11.47;72.60;102710.00;5080726;28;19912;-62
2023/05/17 07:44:07;;;;;;;;;;;;;;;11.48;72.12;102710.84;5083842;28;19916;-62
2023/05/17 07:46:32;;;;;;;;;;;;;;;11.57;72.81;102711.88;5081270;28;19923;-62
2023/05/17 07:48:57;;;;;;;;;;;;;;;11.68;72.57;102714.47;5079013;28;19912;-62
2023/05/17 07:51:22;;;;;;;;;;;;;;;11.69;72.25;102711.66;5081009;28;19943;-61
2023/05/17 07:53:48;;;;;;;;;;;;;;;11.70;72.11;102718.69;5088404;28;19912;-61
2023/05/17 07:56:13;;;;;;;;;;;;;;;11.71;71.21;102716.84;5068565;28;19921;-61
2023/05/17 07:58:38;;;;;;;;;;;;;;;11.68;70.90;102722.44;5081069;28;19912;-62
2023/05/17 08:01:03;;;;;;;;;;;;;;;11.70;70.41;102717.84;5081138;28;19919;-62
2023/05/17 08:03:29;;;;;;;;;;;;;;;11.78;70.39;102716.22;5081142;28;20488;-60
2023/05/17 08:05:54;;;;;;;;;;;;;;;11.87;70.24;102722.59;5081805;28;19919;-59
2023/05/17 08:08:20;;;;;;;;;;;;;;;11.93;69.69;102722.06;5083238;28;19912;-60
2023/05/17 08:10:45;;;;;;;;;;;;;;;12.00;69.56;102720.53;5069506;28;19977;-60
2023/05/17 08:13:10;;;;;;;;;;;;;;;12.05;68.67;102723.63;5080719;28;19920;-59
2023/05/17 08:15:35;;;;;;;;;;;;;;;12.08;67.47;102714.53;5069098;28;20006;-60
2023/05/17 08:18:00;;;;;;;;;;;;;;;12.12;67.65;102721.28;5076802;28;19961;-60
2023/05/17 08:20:25;;;;;;;;;;;;;;;12.20;67.43;102726.78;5068325;28;19955;-60
2023/05/17 08:22:51;;;;;;;;;;;;;;;12.36;67.56;102719.13;5080909;28;20341;-60
2023/05/17 08:25:16;;;;;;;;;;;;;;;12.44;67.64;102728.28;5079655;28;19912;-59
2023/05/17 08:27:41;;;;;;;;;;;;;;;12.47;66.28;102723.50;5080679;28;19989;-59
2023/05/17 08:30:06;;;;;;;;;;;;;;;12.45;66.31;102727.28;5074815;28;19916;-59
2023/05/17 08:32:32;;;;;;;;;;;;;;;12.50;66.26;102725.06;5084135;28;19924;-59
2023/05/17 08:34:57;;;;;;;;;;;;;;;12.61;65.78;102719.59;5086756;28;20525;-59
2023/05/17 08:37:22;;;;;;;;;;;;;;;12.80;65.84;102721.44;5084091;28;20363;-60
2023/05/17 08:39:48;;;;;;;;;;;;;;;12.95;65.47;102728.03;5078623;28;19913;-60
2023/05/17 08:42:13;;;;;;;;;;;;;;;13.09;64.57;102721.47;5076711;28;19931;-59
2023/05/17 08:44:38;;;;;;;;;;;;;;;13.21;63.72;102718.53;5078164;28;20301;-59
2023/05/17 08:47:05;;;;;;;;;;;;;;;13.37;63.54;102725.13;5079662;28;19912;-60
2023/05/17 08:49:32;;;;;;;;;;;;;;;13.50;62.68;102715.81;5080538;28;19943;-60
2023/05/17 08:51:58;;;;;;;;;;;;;;;13.56;62.36;102723.22;5086563;28;19916;-58
2023/05/17 08:54:24;;;;;;;;;;;;;;;13.68;62.04;102734.59;5085011;28;20405;-59
2023/05/17 08:56:52;;;;;;;;;;;;;;;13.63;60.83;102735.03;5079213;28;19940;-60
2023/05/17 08:59:20;;;;;;;;;;;;;;;13.61;60.89;102733.50;5078954;28;19933;-60
2023/05/17 09:01:50;;;;;;;;;;;;;;;13.72;60.65;102736.00;5074509;28;20382;-59
2023/05/17 09:04:16;;;;;;;;;;;;;;;13.79;59.91;102734.41;5077619;28;19920;-60
2023/05/17 09:06:43;;;;;;;;;;;;;;;13.89;59.63;102737.94;5079796;28;20336;-59
2023/05/17 09:09:08;;;;;;;;;;;;;;;14.04;59.55;102726.75;5071641;28;19913;-59
2023/05/17 09:11:34;;;;;;;;;;;;;;;14.31;59.31;102736.63;5077167;28;19916;-60
2023/05/17 09:13:59;;;;;;;;;;;;;;;14.59;59.27;102735.63;5071990;28;19921;-60
2023/05/17 09:16:27;;;;;;;;;;;;;;;14.78;58.58;102732.00;5073957;28;20393;-60
2023/05/17 09:18:53;;;;;;;;;;;;;;;14.87;57.37;102731.09;5076749;28;19912;-60
2023/05/17 09:21:19;;;;;;;;;;;;;;;14.82;56.93;102736.88;5074615;28;19920;-59
2023/05/17 09:23:45;;;;;;;;;;;;;;;14.79;56.61;102734.53;5077799;28;19942;-60
2023/05/17 09:26:12;;;;;;;;;;;;;;;14.96;57.32;102742.69;5074554;28;20563;-60
2023/05/17 09:28:38;;;;;;;;;;;;;;;15.01;56.36;102733.22;5071017;28;19916;-60
2023/05/17 09:31:12;;;;;;;;;;;;;;;15.19;55.42;102734.03;5075131;28;19928;-60
2023/05/17 09:33:42;;;;;;;;;;;;;;;15.44;56.35;102734.25;5083974;28;19938;-60
2023/05/17 09:36:14;;;;;;;;;;;;;;;15.70;55.63;102742.31;5073733;28;19969;-60
2023/05/17 09:38:39;;;;;;;;;;;;;;;15.80;54.83;102743.03;5088362;28;19912;-61
2023/05/17 09:41:05;;;;;;;;;;;;;;;15.86;54.36;102741.56;5081437;28;19917;-60
2023/05/17 09:43:30;;;;;;;;;;;;;;;15.95;54.17;102738.78;5079276;28;19969;-61
2023/05/17 09:45:56;;;;;;;;;;;;;;;16.12;54.75;102745.06;5073850;28;19928;-60
2023/05/17 09:48:24;;;;;;;;;;;;;;;16.22;53.98;102743.13;5080974;28;19924;-61
2023/05/17 09:50:50;;;;;;;;;;;;;;;16.35;53.77;102735.44;5077130;28;19916;-60
2023/05/17 09:53:31;;;;;;;;;;;;;;;16.40;52.84;102735.78;5082053;28;19924;-60
2023/05/17 09:56:01;;;;;;;;;;;;;;;16.35;52.17;102727.41;5076131;28;20356;-61
2023/05/17 09:58:30;;;;;;;;;;;;;;;16.43;51.71;102729.25;5076365;28;20402;-61
2023/05/17 10:01:02;;;;;;;;;;;;;;;16.64;51.26;102728.81;5074931;28;19916;-60
2023/05/17 10:03:33;;;;;;;;;;;;;;;16.63;50.61;102725.31;5075430;28;20450;-60
2023/05/17 10:05:59;;;;;;;;;;;;;;;16.58;50.58;102735.69;5075794;28;19916;-60
2023/05/17 10:08:26;;;;;;;;;;;;;;;16.65;50.46;102731.34;5076916;28;19971;-61
2023/05/17 10:10:57;;;;;;;;;;;;;;;16.70;49.77;102736.25;5080670;28;19950;-60
2023/05/17 10:13:26;;;;;;;;;;;;;;;16.58;49.31;102737.53;5076089;28;19931;-60
2023/05/17 10:15:52;;;;;;;;;;;;;;;16.53;49.96;102740.72;5076783;28;19923;-60
2023/05/17 10:18:17;;;;;;;;;;;;;;;16.41;48.71;102740.16;5075747;28;19928;-60
2023/05/17 10:20:42;;;;;;;;;;;;;;;16.29;48.44;102728.06;5077303;28;19920;-61
2023/05/17 10:23:08;;;;;;;;;;;;;;;16.48;49.03;102736.81;5076189;28;19917;-61
2023/05/17 10:25:33;;;;;;;;;;;;;;;16.55;48.79;102737.88;5077814;28;19917;-61
2023/05/17 10:27:59;;;;;;;;;;;;;;;16.59;48.22;102744.56;5078409;28;19917;-59
2023/05/17 10:30:26;;;;;;;;;;;;;;;16.66;48.18;102740.25;5075424;28;19947;-60
2023/05/17 10:32:52;;;;;;;;;;;;;;;16.65;48.54;102735.88;5073823;28;20921;-60
2023/05/17 10:35:18;;;;;;;;;;;;;;;16.84;48.01;102734.78;5078496;28;19981;-60
2023/05/17 10:37:43;;;;;;;;;;;;;;;16.94;47.14;102732.75;5078449;28;19921;-60
2023/05/17 10:40:12;;;;;;;;;;;;;;;17.05;47.07;102727.06;5072428;28;19947;-60
2023/05/17 10:42:52;;;;;;;;;;;;;;;17.16;46.98;102724.06;5080366;28;19970;-59
2023/05/17 10:45:21;;;;;;;;;;;;;;;17.19;47.06;102721.03;5083844;28;19920;-60
2023/05/17 10:47:47;;;;;;;;;;;;;;;17.29;47.00;102724.38;5080202;28;19918;-59
2023/05/17 10:50:13;;;;;;;;;;;;;;;17.35;46.71;102725.56;5078876;28;20519;-60
2023/05/17 10:52:45;;;;;;;;;;;;;;;17.35;47.17;102728.25;5079244;28;19919;-60
2023/05/17 10:55:10;;;;;;;;;;;;;;;17.33;47.48;102723.03;5069681;28;19916;-60
2023/05/17 10:57:36;;;;;;;;;;;;;;;17.31;46.18;102721.50;5087019;28;19985;-60
2023/05/17 11:00:05;;;;;;;;;;;;;;;17.30;46.89;102718.00;5070468;28;20385;-60
2023/05/17 11:02:30;;;;;;;;;;;;;;;17.49;46.41;102714.13;5077592;28;20432;-60
2023/05/17 11:04:56;;;;;;;;;;;;;;;17.63;46.12;102718.78;5080678;28;19920;-60
2023/05/17 11:07:32;;;;;;;;;;;;;;;17.80;46.19;102710.72;5078630;28;19916;-60
2023/05/17 11:10:07;;;;;;;;;;;;;;;17.86;45.16;102701.97;5078451;28;19951;-60
2023/05/17 11:12:40;;;;;;;;;;;;;;;18.03;44.64;102713.50;5082575;28;19923;-60
2023/05/17 11:15:13;;;;;;;;;;;;;;;18.11;45.26;102710.78;5076607;28;19966;-60
2023/05/17 11:17:41;;;;;;;;;;;;;;;18.14;45.32;102716.66;5074961;28;20063;-60
2023/05/17 11:20:10;;;;;;;;;;;;;;;18.04;43.89;102721.41;5071778;28;19920;-60
2023/05/17 11:22:36;;;;;;;;;;;;;;;18.00;43.31;102717.38;5085304;28;19916;-61
2023/05/17 11:25:05;;;;;;;;;;;;;;;18.06;43.40;102719.38;5081908;28;20123;-60
2023/05/17 11:27:34;;;;;;;;;;;;;;;18.12;43.57;102715.97;5079230;28;20007;-60
2023/05/17 11:30:06;;;;;;;;;;;;;;;18.14;43.10;102722.03;5068968;28;19919;-60
2023/05/17 11:32:31;;;;;;;;;;;;;;;18.22;43.08;102721.16;5084202;28;19912;-59
2023/05/17 11:35:00;;;;;;;;;;;;;;;18.13;41.63;102711.44;5081517;28;19916;-59
2023/05/17 11:37:28;;;;;;;;;;;;;;;17.89;42.51;102720.44;5079616;28;19924;-59
2023/05/17 11:40:04;;;;;;;;;;;;;;;17.87;42.80;102722.44;5081625;28;19921;-59
2023/05/17 11:42:30;;;;;;;;;;;;;;;17.80;42.36;102710.72;5079107;28;20412;-60
2023/05/17 11:44:57;;;;;;;;;;;;;;;17.84;43.02;102720.13;5082919;28;19939;-59
2023/05/17 11:47:22;;;;;;;;;;;;;;;17.79;42.77;102711.72;5075890;28;19939;-60
2023/05/17 11:49:50;;;;;;;;;;;;;;;17.71;42.92;102714.44;5079973;28;19916;-60
2023/05/17 11:52:15;;;;;;;;;;;;;;;17.74;43.86;102716.78;5079385;28;20278;-60
2023/05/17 11:54:41;;;;;;;;;;;;;;;17.80;43.90;102713.41;5073694;28;20393;-60
2023/05/17 11:57:07;;;;;;;;;;;;;;;17.88;44.17;102708.00;5080624;28;19935;-60
2023/05/17 11:59:37;;;;;;;;;;;;;;;17.95;44.56;102712.53;5075247;28;19947;-60
2023/05/17 12:02:02;;;;;;;;;;;;;;;18.11;44.88;102708.09;5074899;28;19916;-60
2023/05/17 12:04:27;;;;;;;;;;;;;;;18.22;44.08;102719.31;5076450;28;19972;-60
2023/05/17 12:06:53;;;;;;;;;;;;;;;18.30;43.86;102709.53;5074635;28;19981;-60
2023/05/17 12:09:18;;;;;;;;;;;;;;;18.34;44.02;102714.38;5076383;28;19947;-60
2023/05/17 12:11:44;;;;;;;;;;;;;;;18.41;43.94;102712.66;5073032;28;20484;-60
2023/05/17 12:14:13;;;;;;;;;;;;;;;18.52;43.81;102703.34;5077602;28;19916;-61
2023/05/17 12:16:40;;;;;;;;;;;;;;;18.62;43.21;102708.50;5075596;28;20279;-60
2023/05/17 12:19:15;;;;;;;;;;;;;;;18.71;42.38;102705.59;5075385;28;19923;-60
2023/05/17 12:21:40;;;;;;;;;;;;;;;18.78;42.43;102701.16;5075183;28;19924;-61
2023/05/17 12:24:05;;;;;;;;;;;;;;;18.84;41.54;102703.16;5069651;28;19946;-60
2023/05/17 12:26:31;;;;;;;;;;;;;;;18.83;41.27;102704.19;5071919;28;20290;-60
2023/05/17 12:28:59;;;;;;;;;;;;;;;18.85;40.91;102704.84;5069560;28;19966;-60
2023/05/17 12:31:27;;;;;;;;;;;;;;;18.84;39.93;102703.16;5083755;28;20301;-60
2023/05/17 12:33:53;;;;;;;;;;;;;;;18.82;40.22;102713.28;5069951;28;19916;-60
2023/05/17 12:36:18;;;;;;;;;;;;;;;18.83;40.20;102712.25;5073333;28;19924;-59